Terminal Aerodrome Forecast
Issued by NWS

Home | Current Version | Previous Version | Text Only | Print | Product List | Glossary On
Versions: 1 2 3 4 5 6 7 8 9 10 11 12 13 14 15
247
FTUS43 KAPX 271120
TAFPLN
TAF
KPLN 271120Z 2712/2812 00000KT P6SM SCT100
      TEMPO 2712/2713 3SM BR
     FM271800 24006KT P6SM SCT140
     FM280000 00000KT P6SM FEW200
     FM280600 VRB03KT P6SM BKN090=

USA.gov is the U.S. government's official web portal to all federal, state and local government web resources and services.